createdAt,value
2019-03-28T00:02:17.508Z,85.51
2019-03-28T00:04:48.055Z,85.62
2019-03-28T00:07:18.562Z,85.79
2019-03-28T00:09:49.027Z,85.72
2019-03-28T00:12:19.462Z,85.84
2019-03-28T00:14:50.020Z,85.80
2019-03-28T00:17:20.621Z,85.92
2019-03-28T00:19:51.348Z,85.70
2019-03-28T00:22:23.361Z,85.81
2019-03-28T00:24:55.584Z,85.98
2019-03-28T00:27:25.990Z,85.97
2019-03-28T00:29:56.855Z,86.03
2019-03-28T00:32:27.317Z,86.11
2019-03-28T00:34:58.394Z,85.96
2019-03-28T00:37:28.948Z,86.14
2019-03-28T00:39:59.687Z,86.08
2019-03-28T00:42:30.280Z,86.04
2019-03-28T00:45:00.990Z,86.12
2019-03-28T00:47:31.546Z,86.01
2019-03-28T00:50:02.171Z,86.01
2019-03-28T00:52:33.058Z,86.18
2019-03-28T00:55:04.915Z,86.22
2019-03-28T00:57:35.470Z,86.27
2019-03-28T01:00:06.563Z,86.18
2019-03-28T01:02:37.226Z,86.30
2019-03-28T01:05:07.957Z,86.11
2019-03-28T01:07:38.371Z,86.11
2019-03-28T01:10:09.830Z,86.28
2019-03-28T01:12:40.386Z,86.32
2019-03-28T01:15:11.087Z,86.28
2019-03-28T01:17:41.644Z,86.20
2019-03-28T01:20:12.118Z,86.09
2019-03-28T01:22:42.645Z,86.12
2019-03-28T01:25:13.229Z,85.99
2019-03-28T01:27:43.939Z,85.73
2019-03-28T01:30:14.538Z,85.70
2019-03-28T01:32:44.948Z,85.41
2019-03-28T01:35:15.603Z,85.21
2019-03-28T01:37:45.946Z,85.00
2019-03-28T01:40:16.543Z,85.08
2019-03-28T01:42:46.998Z,85.11
2019-03-28T01:45:17.534Z,84.99
2019-03-28T01:47:48.215Z,85.12
2019-03-28T01:50:18.899Z,84.98
2019-03-28T01:52:49.403Z,84.93
2019-03-28T01:55:19.852Z,84.82
2019-03-28T01:57:50.489Z,84.79
2019-03-28T02:00:21.050Z,84.68
2019-03-28T02:02:51.503Z,84.63
2019-03-28T02:05:22.305Z,84.66
2019-03-28T02:07:52.928Z,84.53
2019-03-28T02:10:24.158Z,84.72
2019-03-28T02:12:54.891Z,84.78
2019-03-28T02:15:25.613Z,84.92
2019-03-28T02:17:56.215Z,84.96
2019-03-28T02:20:26.551Z,85.10
2019-03-28T02:22:57.075Z,84.89
2019-03-28T02:25:27.710Z,84.92
2019-03-28T02:27:58.469Z,84.97
2019-03-28T02:30:32.494Z,84.88
2019-03-28T02:33:02.978Z,84.89
2019-03-28T02:35:33.867Z,84.96
2019-03-28T02:38:04.641Z,84.83
2019-03-28T02:40:35.161Z,84.87
2019-03-28T02:43:05.476Z,85.06
2019-03-28T02:45:36.346Z,85.05
2019-03-28T02:48:06.940Z,85.30
2019-03-28T02:50:37.828Z,85.22
2019-03-28T02:53:08.778Z,85.16
2019-03-28T02:55:39.368Z,85.22
2019-03-28T02:58:10.760Z,85.27
2019-03-28T03:00:41.581Z,85.34
2019-03-28T03:03:12.285Z,85.12
2019-03-28T03:05:42.726Z,84.92
2019-03-28T03:08:13.307Z,84.94
2019-03-28T03:10:45.113Z,85.11
2019-03-28T03:13:15.444Z,85.03
2019-03-28T03:15:46.204Z,84.91
2019-03-28T03:18:21.017Z,84.99
2019-03-28T03:20:48.911Z,85.11
2019-03-28T03:23:20.080Z,85.10
2019-03-28T03:25:51.160Z,84.94
2019-03-28T03:28:21.882Z,84.90
2019-03-28T03:30:52.385Z,84.91
2019-03-28T03:33:22.950Z,84.98
2019-03-28T03:35:53.568Z,85.24
2019-03-28T03:38:24.190Z,85.49
2019-03-28T03:40:54.903Z,84.98
2019-03-28T03:43:26.079Z,84.89
2019-03-28T03:45:56.531Z,85.29
2019-03-28T03:48:27.078Z,85.08
2019-03-28T03:50:57.728Z,84.95
2019-03-28T03:53:28.353Z,85.13
2019-03-28T03:55:58.909Z,85.18
2019-03-28T03:58:29.339Z,85.29
2019-03-28T04:00:59.712Z,85.33
2019-03-28T04:03:30.524Z,85.23
2019-03-28T04:06:01.163Z,85.18
2019-03-28T04:08:31.799Z,85.14
2019-03-28T04:11:02.809Z,85.17
2019-03-28T04:13:33.517Z,85.19
2019-03-28T04:16:04.250Z,85.20
2019-03-28T04:18:34.736Z,85.37
2019-03-28T04:21:05.266Z,85.39
2019-03-28T04:23:35.780Z,85.40
2019-03-28T04:26:06.428Z,85.37
2019-03-28T04:28:37.138Z,85.50
2019-03-28T04:31:07.794Z,85.49
2019-03-28T04:33:39.757Z,85.79
2019-03-28T04:36:10.394Z,85.50
2019-03-28T04:38:41.138Z,85.26
2019-03-28T04:41:11.855Z,85.27
2019-03-28T04:43:42.593Z,84.94
2019-03-28T04:46:13.300Z,85.10
2019-03-28T04:48:43.971Z,85.19
2019-03-28T04:51:14.806Z,85.00
2019-03-28T04:53:45.743Z,84.99
2019-03-28T04:56:17.313Z,84.90
2019-03-28T04:58:48.034Z,84.81
2019-03-28T05:01:18.665Z,84.81
2019-03-28T05:03:49.450Z,84.66
2019-03-28T05:06:20.605Z,84.40
2019-03-28T05:08:51.049Z,84.39
2019-03-28T05:11:21.674Z,84.28
2019-03-28T05:13:52.335Z,84.35
2019-03-28T05:16:23.342Z,84.12
2019-03-28T05:18:54.216Z,83.91
2019-03-28T05:21:25.155Z,84.54
2019-03-28T05:23:56.012Z,84.14
2019-03-28T05:26:26.681Z,84.06
2019-03-28T05:28:58.854Z,83.58
2019-03-28T05:31:29.754Z,83.24
2019-03-28T05:34:00.363Z,83.16
2019-03-28T05:36:31.170Z,83.41
2019-03-28T05:39:01.933Z,83.56
2019-03-28T05:41:33.972Z,83.40
2019-03-28T05:44:04.730Z,83.21
2019-03-28T05:46:35.363Z,83.12
2019-03-28T05:49:05.963Z,83.29
2019-03-28T05:51:37.321Z,83.46
2019-03-28T05:54:07.829Z,83.29
2019-03-28T05:56:38.251Z,83.33
2019-03-28T05:59:11.132Z,83.11
2019-03-28T06:01:41.008Z,83.09
2019-03-28T06:04:11.346Z,83.04
2019-03-28T06:06:42.060Z,82.86
2019-03-28T06:09:12.816Z,83.12
2019-03-28T06:11:43.623Z,83.29
2019-03-28T06:14:14.355Z,83.35
2019-03-28T06:16:44.721Z,82.67
2019-03-28T06:19:15.211Z,81.75
2019-03-28T06:21:45.590Z,80.89
2019-03-28T06:24:16.088Z,80.47
2019-03-28T06:26:46.511Z,80.27
2019-03-28T06:29:23.603Z,80.52
2019-03-28T06:31:55.329Z,80.62
2019-03-28T06:34:21.074Z,80.13
2019-03-28T06:36:51.717Z,79.57
2019-03-28T06:39:22.093Z,79.46
2019-03-28T06:41:52.716Z,79.25
2019-03-28T06:44:23.337Z,78.98
2019-03-28T06:46:53.703Z,78.70
2019-03-28T06:49:24.410Z,77.94
2019-03-28T06:51:54.877Z,77.87
2019-03-28T06:54:25.291Z,78.78
2019-03-28T06:56:55.721Z,77.48
2019-03-28T06:59:36.834Z,77.42
2019-03-28T07:01:58.228Z,77.84
2019-03-28T07:04:28.773Z,77.30
2019-03-28T07:06:59.333Z,77.28
2019-03-28T07:09:29.970Z,77.66
2019-03-28T07:12:00.587Z,77.66
2019-03-28T07:14:31.667Z,77.17
2019-03-28T07:17:02.478Z,76.27
2019-03-28T07:19:33.069Z,76.54
2019-03-28T07:22:03.712Z,76.72
2019-03-28T07:24:34.048Z,75.99
2019-03-28T07:27:04.686Z,76.32
2019-03-28T07:29:35.256Z,75.71
2019-03-28T07:32:05.852Z,75.31
2019-03-28T07:34:36.531Z,75.48
2019-03-28T07:37:07.017Z,75.69
2019-03-28T07:39:37.696Z,73.43
2019-03-28T07:42:08.224Z,73.29
2019-03-28T07:44:38.652Z,71.78
2019-03-28T07:47:09.068Z,71.98
2019-03-28T07:49:39.454Z,69.93
2019-03-28T07:52:10.405Z,70.63
2019-03-28T07:54:41.075Z,70.81
2019-03-28T07:57:11.851Z,68.91
2019-03-28T07:59:44.133Z,69.62
2019-03-28T08:02:14.926Z,70.94
2019-03-28T08:04:45.353Z,70.10
2019-03-28T08:07:15.768Z,70.28
2019-03-28T08:09:46.253Z,70.94
2019-03-28T08:12:22.888Z,69.63
2019-03-28T08:14:48.753Z,69.17
2019-03-28T08:17:19.220Z,68.91
2019-03-28T08:19:49.554Z,70.06
2019-03-28T08:22:20.164Z,68.92
2019-03-28T08:24:50.859Z,69.51
2019-03-28T08:27:21.510Z,70.30
2019-03-28T08:29:52.186Z,69.58
2019-03-28T08:32:24.380Z,71.31
2019-03-28T08:34:54.986Z,71.10
2019-03-28T08:37:25.577Z,70.49
2019-03-28T08:39:57.101Z,69.79
2019-03-28T08:42:27.510Z,70.49
2019-03-28T08:44:59.074Z,70.92
2019-03-28T08:47:29.871Z,71.47
2019-03-28T08:50:00.568Z,69.13
2019-03-28T08:52:30.977Z,67.76
2019-03-28T08:55:01.635Z,67.84
2019-03-28T08:57:32.284Z,66.87
2019-03-28T09:00:02.719Z,67.35
2019-03-28T09:02:35.907Z,66.97
2019-03-28T09:05:08.331Z,65.39
2019-03-28T09:07:40.436Z,62.96
2019-03-28T09:10:12.394Z,65.03
2019-03-28T09:12:44.558Z,66.92
2019-03-28T09:15:18.343Z,67.95
2019-03-28T09:17:50.435Z,67.53
2019-03-28T09:20:22.409Z,68.55
2019-03-28T09:22:54.467Z,68.00
2019-03-28T09:25:26.521Z,67.37
2019-03-28T09:27:58.342Z,68.14
2019-03-28T09:30:48.295Z,67.70
2019-03-28T09:33:12.995Z,67.10
2019-03-28T09:35:45.224Z,67.61
2019-03-28T09:38:17.385Z,67.08
2019-03-28T09:40:49.639Z,68.06
2019-03-28T09:43:21.983Z,67.35
2019-03-28T09:45:54.149Z,67.80
2019-03-28T09:48:26.094Z,67.13
2019-03-28T09:50:58.141Z,68.21
2019-03-28T09:53:30.161Z,69.21
2019-03-28T09:56:02.386Z,68.74
2019-03-28T09:58:34.555Z,67.72
2019-03-28T10:01:06.626Z,66.45
2019-03-28T10:03:38.798Z,65.86
2019-03-28T10:06:10.966Z,64.94
2019-03-28T10:08:43.006Z,64.67
2019-03-28T10:11:14.859Z,63.24
2019-03-28T10:13:47.009Z,64.12
2019-03-28T10:16:19.427Z,65.47
2019-03-28T10:18:51.375Z,63.97
2019-03-28T10:21:23.727Z,62.47
2019-03-28T10:23:55.813Z,62.55
2019-03-28T10:26:27.754Z,62.96
2019-03-28T10:28:59.845Z,63.81
2019-03-28T10:31:32.424Z,62.18
2019-03-28T10:34:04.519Z,59.16
2019-03-28T10:36:36.736Z,56.84
2019-03-28T10:39:09.975Z,58.95
2019-03-28T10:41:42.161Z,58.58
2019-03-28T10:44:14.278Z,56.65
2019-03-28T10:46:46.472Z,54.54
2019-03-28T10:49:18.660Z,55.58
2019-03-28T10:51:50.733Z,57.74
2019-03-28T10:54:25.636Z,58.64
2019-03-28T10:56:58.011Z,58.37
2019-03-28T10:59:30.388Z,59.59
2019-03-28T11:02:02.791Z,60.10
2019-03-28T11:04:36.059Z,59.12
2019-03-28T11:07:08.305Z,55.88
2019-03-28T11:09:40.817Z,56.40
2019-03-28T11:12:14.256Z,57.29
2019-03-28T11:14:46.639Z,57.08
2019-03-28T11:17:18.795Z,57.48
2019-03-28T11:19:50.932Z,58.86
2019-03-28T11:22:23.200Z,59.13
2019-03-28T11:24:55.386Z,58.44
2019-03-28T11:27:25.984Z,57.81
2019-03-28T11:29:57.993Z,57.79
2019-03-28T11:32:30.000Z,56.26
2019-03-28T11:35:04.464Z,57.60
2019-03-28T11:37:36.863Z,56.62
2019-03-28T11:40:09.856Z,57.00
2019-03-28T11:42:41.997Z,57.80
2019-03-28T11:45:14.090Z,56.38
2019-03-28T11:47:46.495Z,57.11
2019-03-28T11:50:18.910Z,52.79
2019-03-28T11:52:51.024Z,50.67
2019-03-28T11:55:23.296Z,52.98
2019-03-28T11:57:56.666Z,49.42
2019-03-28T12:00:29.600Z,50.70
2019-03-28T12:03:01.678Z,49.11
2019-03-28T12:05:33.854Z,45.64
2019-03-28T12:08:06.099Z,48.42
2019-03-28T12:10:38.882Z,50.31
2019-03-28T12:13:11.177Z,51.18
2019-03-28T12:15:43.214Z,56.10
2019-03-28T12:18:15.290Z,56.54
2019-03-28T12:20:47.531Z,56.64
2019-03-28T12:23:19.377Z,53.49
2019-03-28T12:25:51.481Z,51.92
2019-03-28T12:28:24.026Z,52.56
2019-03-28T12:30:56.497Z,53.76
2019-03-28T12:33:28.696Z,51.06
2019-03-28T12:36:00.703Z,45.23
2019-03-28T12:38:34.126Z,47.38
2019-03-28T12:41:06.418Z,45.22
2019-03-28T12:43:38.517Z,47.94
2019-03-28T12:46:10.576Z,50.28
2019-03-28T12:48:42.636Z,51.50
2019-03-28T12:51:14.738Z,53.22
2019-03-28T12:53:47.496Z,51.66
2019-03-28T12:56:20.231Z,51.97
2019-03-28T12:58:52.082Z,55.86
2019-03-28T13:01:25.591Z,53.49
2019-03-28T13:03:57.827Z,53.72
2019-03-28T13:06:29.957Z,54.83
2019-03-28T13:09:02.027Z,55.00
2019-03-28T13:11:35.961Z,54.62
2019-03-28T13:14:09.360Z,55.13
2019-03-28T13:16:41.535Z,55.13
2019-03-28T13:19:13.631Z,53.63
2019-03-28T13:21:45.651Z,47.87
2019-03-28T13:24:17.947Z,44.88
2019-03-28T13:26:49.987Z,48.08
2019-03-28T13:29:22.024Z,51.74
2019-03-28T13:31:54.342Z,51.96
2019-03-28T13:34:26.872Z,52.73
2019-03-28T13:36:58.827Z,52.55
2019-03-28T13:39:31.034Z,52.89
2019-03-28T13:42:02.952Z,52.59
2019-03-28T13:44:34.999Z,54.01
2019-03-28T13:47:07.394Z,54.97
2019-03-28T13:49:40.003Z,54.48
2019-03-28T13:52:11.899Z,51.21
2019-03-28T13:54:43.915Z,46.33
2019-03-28T13:57:16.539Z,42.62
2019-03-28T13:59:48.962Z,42.41
2019-03-28T14:02:20.835Z,41.91
2019-03-28T14:04:52.990Z,42.90
2019-03-28T14:07:25.277Z,45.57
2019-03-28T14:09:57.288Z,47.07
2019-03-28T14:12:29.511Z,47.63
2019-03-28T14:15:01.637Z,49.02
2019-03-28T14:17:35.120Z,47.50
2019-03-28T14:20:08.997Z,48.12
2019-03-28T14:22:41.217Z,49.43
2019-03-28T14:25:13.510Z,50.62
2019-03-28T14:27:45.728Z,50.77
2019-03-28T14:30:17.808Z,49.86
2019-03-28T14:32:53.409Z,50.98
2019-03-28T14:35:24.343Z,49.56
2019-03-28T14:37:56.455Z,49.97
2019-03-28T14:40:28.882Z,50.65
2019-03-28T14:43:01.053Z,51.68
2019-03-28T14:45:32.883Z,51.82
2019-03-28T14:48:06.831Z,51.13
2019-03-28T14:50:40.921Z,51.42
2019-03-28T14:53:13.214Z,49.91
2019-03-28T14:55:45.549Z,51.95
2019-03-28T14:58:17.597Z,50.86
2019-03-28T15:00:51.564Z,51.49
2019-03-28T15:03:26.711Z,50.06
2019-03-28T15:05:58.699Z,51.95
2019-03-28T15:08:30.770Z,52.48
2019-03-28T15:11:03.249Z,51.87
2019-03-28T15:13:35.817Z,51.52
2019-03-28T15:16:08.140Z,52.20
2019-03-28T15:18:40.764Z,50.45
2019-03-28T15:21:12.756Z,52.77
2019-03-28T15:23:45.929Z,50.74
2019-03-28T15:26:17.877Z,50.83
2019-03-28T15:28:49.937Z,49.44
2019-03-28T15:31:22.321Z,50.54
2019-03-28T15:33:54.465Z,50.27
2019-03-28T15:36:27.359Z,50.51
2019-03-28T15:38:59.915Z,50.43
2019-03-28T15:41:32.419Z,51.89
2019-03-28T15:44:04.703Z,52.09
2019-03-28T15:46:36.319Z,51.54
2019-03-28T15:49:08.321Z,49.76
2019-03-28T15:51:40.447Z,50.64
2019-03-28T15:54:12.884Z,53.47
2019-03-28T15:56:45.675Z,51.87
2019-03-28T15:59:17.830Z,50.06
2019-03-28T16:01:52.807Z,47.47
2019-03-28T16:04:25.086Z,46.85
2019-03-28T16:06:57.076Z,46.67
2019-03-28T16:09:30.102Z,47.17
2019-03-28T16:12:03.134Z,47.39
2019-03-28T16:14:35.094Z,47.42
2019-03-28T16:17:07.752Z,47.96
2019-03-28T16:19:40.079Z,48.34
2019-03-28T16:22:12.101Z,47.58
2019-03-28T16:24:46.502Z,48.87
2019-03-28T16:27:18.787Z,49.01
2019-03-28T16:29:54.214Z,49.31
2019-03-28T16:32:24.971Z,49.74
2019-03-28T16:34:57.081Z,50.48
2019-03-28T16:37:29.233Z,50.96
2019-03-28T16:40:01.443Z,51.46
2019-03-28T16:42:33.731Z,51.97
2019-03-28T16:45:07.059Z,52.61
2019-03-28T16:47:38.957Z,53.51
2019-03-28T16:50:12.475Z,53.85
2019-03-28T16:52:44.698Z,54.56
2019-03-28T16:55:26.378Z,54.82
2019-03-28T16:57:50.649Z,55.67
2019-03-28T17:00:25.988Z,56.09
2019-03-28T17:02:58.085Z,56.42
2019-03-28T17:05:30.193Z,56.65
2019-03-28T17:08:04.506Z,57.19
2019-03-28T17:10:53.292Z,57.47
2019-03-28T17:13:25.930Z,57.81
2019-03-28T17:15:57.959Z,58.01
2019-03-28T17:18:31.240Z,58.39
2019-03-28T17:21:03.994Z,58.69
2019-03-28T17:23:36.105Z,58.90
2019-03-28T17:26:08.116Z,58.99
2019-03-28T17:28:40.400Z,59.76
2019-03-28T17:31:12.658Z,60.60
2019-03-28T17:33:44.622Z,59.47
2019-03-28T17:36:16.933Z,59.48
2019-03-28T17:38:50.096Z,60.11
2019-03-28T17:41:22.267Z,61.06
2019-03-28T17:43:54.234Z,61.97
2019-03-28T17:46:26.335Z,62.31
2019-03-28T17:48:59.436Z,61.86
2019-03-28T17:51:31.957Z,62.09
2019-03-28T17:54:04.055Z,62.41
2019-03-28T17:56:36.127Z,62.11
2019-03-28T17:59:08.310Z,61.69
2019-03-28T18:01:40.943Z,62.09
2019-03-28T18:04:22.702Z,62.45
2019-03-28T18:06:46.712Z,62.36
2019-03-28T18:09:18.999Z,62.78
2019-03-28T18:11:51.390Z,62.90
2019-03-28T18:14:23.925Z,65.53
2019-03-28T18:16:56.138Z,64.82
2019-03-28T18:19:28.189Z,62.87
2019-03-28T18:22:03.634Z,62.29
2019-03-28T18:24:34.133Z,62.52
2019-03-28T18:27:06.901Z,62.76
2019-03-28T18:29:38.966Z,62.74
2019-03-28T18:32:11.086Z,63.53
2019-03-28T18:34:44.309Z,63.18
2019-03-28T18:37:16.570Z,63.92
2019-03-28T18:39:49.093Z,63.41
2019-03-28T18:42:21.341Z,62.89
2019-03-28T18:44:53.568Z,62.87
2019-03-28T18:47:25.573Z,62.40
2019-03-28T18:49:57.737Z,62.81
2019-03-28T18:52:29.721Z,62.71
2019-03-28T18:55:02.086Z,62.60
2019-03-28T18:57:34.441Z,62.58
2019-03-28T19:00:07.609Z,62.92
2019-03-28T19:02:39.868Z,63.30
2019-03-28T19:05:19.829Z,63.43
2019-03-28T19:07:47.071Z,63.53
2019-03-28T19:10:19.645Z,63.52
2019-03-28T19:12:51.938Z,63.86
2019-03-28T19:15:24.611Z,63.76
2019-03-28T19:17:57.200Z,63.98
2019-03-28T19:20:32.902Z,64.21
2019-03-28T19:23:06.904Z,64.70
2019-03-28T19:25:38.690Z,65.57
2019-03-28T19:28:11.238Z,65.30
2019-03-28T19:30:43.612Z,65.34
2019-03-28T19:33:15.903Z,65.23
2019-03-28T19:35:49.364Z,65.33
2019-03-28T19:38:21.880Z,65.65
2019-03-28T19:40:54.307Z,65.91
2019-03-28T19:43:27.174Z,66.28
2019-03-28T19:45:59.211Z,66.51
2019-03-28T19:48:31.413Z,66.78
2019-03-28T19:51:03.890Z,67.07
2019-03-28T19:53:36.058Z,67.24
2019-03-28T19:56:08.168Z,66.99
2019-03-28T19:58:41.037Z,66.36
2019-03-28T20:01:14.601Z,66.39
2019-03-28T20:03:47.076Z,66.22
2019-03-28T20:06:22.384Z,66.35
2019-03-28T20:08:53.292Z,66.63
2019-03-28T20:11:26.049Z,67.14
2019-03-28T20:13:58.519Z,66.99
2019-03-28T20:16:30.649Z,66.77
2019-03-28T20:19:03.109Z,66.48
2019-03-28T20:21:35.181Z,66.45
2019-03-28T20:24:11.337Z,66.71
2019-03-28T20:26:43.621Z,66.71
2019-03-28T20:29:15.972Z,66.85
2019-03-28T20:31:47.799Z,67.10
2019-03-28T20:34:19.956Z,67.31
2019-03-28T20:36:53.107Z,67.50
2019-03-28T20:39:26.621Z,67.72
2019-03-28T20:41:58.659Z,67.77
2019-03-28T20:44:31.086Z,68.24
2019-03-28T20:47:03.328Z,68.26
2019-03-28T20:49:36.162Z,68.48
2019-03-28T20:52:09.678Z,68.45
2019-03-28T20:54:42.105Z,68.43
2019-03-28T20:57:14.003Z,68.25
2019-03-28T20:59:46.983Z,68.92
2019-03-28T21:02:19.164Z,69.11
2019-03-28T21:04:51.298Z,69.17
2019-03-28T21:07:23.486Z,69.73
2019-03-28T21:09:55.908Z,69.58
2019-03-28T21:12:28.037Z,69.62
2019-03-28T21:15:00.051Z,70.02
2019-03-28T21:17:34.009Z,70.44
2019-03-28T21:20:06.632Z,70.74
2019-03-28T21:22:39.328Z,71.16
2019-03-28T21:25:11.360Z,71.57
2019-03-28T21:27:43.707Z,71.49
2019-03-28T21:30:18.419Z,71.78
2019-03-28T21:32:55.658Z,71.77
2019-03-28T21:35:23.802Z,71.77
2019-03-28T21:37:55.895Z,71.68
2019-03-28T21:40:27.936Z,71.63
2019-03-28T21:43:00.071Z,71.80
2019-03-28T21:45:32.472Z,71.92
2019-03-28T21:48:04.860Z,71.92
2019-03-28T21:50:37.300Z,71.84
2019-03-28T21:53:09.654Z,71.83
2019-03-28T21:55:54.449Z,72.52
2019-03-28T21:58:15.518Z,72.56
2019-03-28T22:00:47.493Z,72.49
2019-03-28T22:03:20.485Z,72.36
2019-03-28T22:05:52.548Z,72.04
2019-03-28T22:08:24.999Z,72.32
2019-03-28T22:10:57.207Z,73.00
2019-03-28T22:13:30.195Z,73.41
2019-03-28T22:16:02.671Z,73.33
2019-03-28T22:18:34.683Z,73.44
2019-03-28T22:21:06.722Z,73.48
2019-03-28T22:23:39.013Z,73.80
2019-03-28T22:26:11.007Z,73.84
2019-03-28T22:28:43.214Z,73.57
2019-03-28T22:31:15.240Z,73.35
2019-03-28T22:33:47.352Z,73.19
2019-03-28T22:36:19.474Z,73.67
2019-03-28T22:38:51.638Z,73.43
2019-03-28T22:41:23.713Z,73.27
2019-03-28T22:51:31.579Z,72.96
2019-03-28T22:54:03.083Z,73.24
2019-03-28T22:56:34.946Z,73.19
2019-03-28T22:59:07.276Z,73.69
2019-03-28T23:01:39.303Z,73.15
2019-03-28T23:04:12.898Z,73.00
2019-03-28T23:06:45.489Z,73.06
2019-03-28T23:09:17.853Z,73.28
2019-03-28T23:11:49.998Z,73.62
2019-03-28T23:14:22.784Z,73.79
2019-03-28T23:16:55.295Z,73.21
2019-03-28T23:19:27.491Z,73.24
2019-03-28T23:21:59.584Z,73.07
2019-03-28T23:24:31.653Z,73.30
2019-03-28T23:27:03.908Z,73.37
2019-03-28T23:29:36.174Z,73.39
2019-03-28T23:32:08.804Z,73.25
2019-03-28T23:34:41.271Z,73.46
2019-03-28T23:37:24.226Z,73.04
2019-03-28T23:39:47.284Z,73.12
2019-03-28T23:42:19.313Z,74.24
2019-03-28T23:44:51.359Z,74.24
2019-03-28T23:47:23.206Z,74.90
2019-03-28T23:49:55.640Z,75.14
2019-03-28T23:52:27.949Z,75.27
2019-03-28T23:55:00.363Z,75.17
2019-03-28T23:57:32.320Z,75.31
